Time;durP1;ratioP1;P1;durP2;ratioP2;P2;SDS_P1;SDS_P2;PMS_P1;PMS_P2;Temp;Humidity;BMP_temperature;BMP_pressure;BME280_temperature;BME280_humidity;BME280_pressure;Samples;Min_cycle;Max_cycle;Signal;HPM_P1;HPM_P2
2021/11/25 00:01:29;;;;;;;44.65;16.15;;;;;;;;;;5057479;28;20057;-76
2021/11/25 00:03:57;;;;;;;34.08;14.13;;;;;;;;;;5057892;28;20092;-75
2021/11/25 00:06:25;;;;;;;42.70;16.20;;;;;;;;;;5057239;28;20053;-76
2021/11/25 00:08:52;;;;;;;39.33;14.93;;;;;;;;;;5059201;28;20041;-77
2021/11/25 00:11:19;;;;;;;42.75;14.50;;;;;;;;;;5064034;28;20048;-76
2021/11/25 00:13:45;;;;;;;42.60;15.38;;;;;;;;;;5063954;28;20049;-76
2021/11/25 00:16:12;;;;;;;44.75;15.93;;;;;;;;;;5059444;28;20045;-76
2021/11/25 00:18:39;;;;;;;41.17;16.50;;;;;;;;;;5054975;28;20041;-76
2021/11/25 00:21:06;;;;;;;40.15;15.32;;;;;;;;;;5054996;28;20045;-76
2021/11/25 00:23:34;;;;;;;45.75;17.30;;;;;;;;;;5054681;28;20087;-77
2021/11/25 00:26:01;;;;;;;41.90;17.15;;;;;;;;;;5055704;28;20053;-77
2021/11/25 00:28:27;;;;;;;46.60;18.42;;;;;;;;;;5054946;28;20076;-77
2021/11/25 00:30:54;;;;;;;43.50;17.30;;;;;;;;;;5055037;28;20110;-77
2021/11/25 00:33:21;;;;;;;43.50;16.73;;;;;;;;;;5055201;28;20057;-77
2021/11/25 00:35:48;;;;;;;46.13;17.77;;;;;;;;;;5054816;28;20504;-77
2021/11/25 00:38:14;;;;;;;39.15;15.93;;;;;;;;;;5054357;28;20075;-77
2021/11/25 00:40:43;;;;;;;43.45;16.75;;;;;;;;;;5054596;28;20045;-77
2021/11/25 00:43:09;;;;;;;44.85;16.65;;;;;;;;;;5054862;28;20126;-77
2021/11/25 00:45:36;;;;;;;41.75;15.63;;;;;;;;;;5054583;28;20102;-77
2021/11/25 00:48:03;;;;;;;41.55;16.85;;;;;;;;;;5054357;28;20049;-77
2021/11/25 00:50:30;;;;;;;43.15;16.13;;;;;;;;;;5054779;28;20049;-77
2021/11/25 00:52:57;;;;;;;39.67;16.33;;;;;;;;;;5054921;28;20049;-76
2021/11/25 00:55:24;;;;;;;39.50;16.15;;;;;;;;;;5054312;28;20044;-77
2021/11/25 00:57:52;;;;;;;42.47;14.65;;;;;;;;;;5054033;28;20049;-77
2021/11/25 01:00:22;;;;;;;43.42;16.38;;;;;;;;;;5054117;28;20435;-77
2021/11/25 01:02:50;;;;;;;43.03;14.40;;;;;;;;;;5054606;28;20056;-77
2021/11/25 01:05:18;;;;;;;40.83;16.30;;;;;;;;;;5054429;28;20045;-77
2021/11/25 01:07:46;;;;;;;38.25;15.40;;;;;;;;;;5053876;28;20049;-77
2021/11/25 01:10:16;;;;;;;38.95;16.20;;;;;;;;;;5054400;28;20110;-77
2021/11/25 01:12:43;;;;;;;43.35;16.85;;;;;;;;;;5054599;28;20110;-77
2021/11/25 01:15:14;;;;;;;39.60;15.85;;;;;;;;;;5054419;28;20048;-77
2021/11/25 01:17:41;;;;;;;46.65;16.08;;;;;;;;;;5056107;28;20316;-77
2021/11/25 01:20:10;;;;;;;45.80;17.65;;;;;;;;;;5056557;28;20102;-77
2021/11/25 01:22:37;;;;;;;47.63;16.10;;;;;;;;;;5055388;28;20705;-77
2021/11/25 01:25:05;;;;;;;42.75;16.27;;;;;;;;;;5056406;28;20099;-77
2021/11/25 01:27:32;;;;;;;44.90;18.20;;;;;;;;;;5055379;28;20128;-77
2021/11/25 01:29:59;;;;;;;44.25;17.33;;;;;;;;;;5056778;28;20102;-76
2021/11/25 01:32:27;;;;;;;44.38;16.38;;;;;;;;;;5054101;28;20049;-76
2021/11/25 01:34:55;;;;;;;43.38;17.23;;;;;;;;;;5053769;28;20044;-76
2021/11/25 01:37:24;;;;;;;42.88;16.33;;;;;;;;;;5053777;28;20053;-77
2021/11/25 01:39:51;;;;;;;42.78;16.42;;;;;;;;;;5053336;28;20048;-77
2021/11/25 01:42:18;;;;;;;41.92;15.80;;;;;;;;;;5053554;28;20052;-76
2021/11/25 01:44:45;;;;;;;39.08;17.00;;;;;;;;;;5053566;28;20045;-77
2021/11/25 01:47:11;;;;;;;43.63;16.38;;;;;;;;;;5053342;28;20045;-77
2021/11/25 01:49:40;;;;;;;40.85;15.10;;;;;;;;;;5052417;28;20098;-76
2021/11/25 01:52:07;;;;;;;38.40;13.95;;;;;;;;;;5053461;28;20045;-76
2021/11/25 01:54:34;;;;;;;39.83;16.00;;;;;;;;;;5064041;28;20049;-76
2021/11/25 01:57:01;;;;;;;38.42;14.90;;;;;;;;;;5068061;28;20049;-77
2021/11/25 01:59:27;;;;;;;41.60;14.82;;;;;;;;;;5057456;28;20079;-76
2021/11/25 02:01:54;;;;;;;38.90;15.55;;;;;;;;;;5056066;28;20045;-77
2021/11/25 02:04:23;;;;;;;45.15;18.05;;;;;;;;;;5053638;28;20049;-77
2021/11/25 02:06:51;;;;;;;42.33;15.45;;;;;;;;;;5053954;28;20574;-77
2021/11/25 02:09:18;;;;;;;33.67;14.35;;;;;;;;;;5053258;28;20427;-77
2021/11/25 02:11:45;;;;;;;44.08;16.48;;;;;;;;;;5053453;28;20049;-77
2021/11/25 02:14:12;;;;;;;45.30;18.00;;;;;;;;;;5053756;28;20095;-77
2021/11/25 02:16:39;;;;;;;44.28;15.95;;;;;;;;;;5053509;28;20516;-77
2021/11/25 02:19:08;;;;;;;44.28;16.25;;;;;;;;;;5053315;28;20041;-77
2021/11/25 02:21:36;;;;;;;43.15;16.30;;;;;;;;;;5057333;28;20045;-79
2021/11/25 02:24:04;;;;;;;40.97;16.00;;;;;;;;;;5057797;28;20048;-76
2021/11/25 02:26:31;;;;;;;39.53;16.20;;;;;;;;;;5057395;28;20041;-77
2021/11/25 02:28:57;;;;;;;41.63;16.85;;;;;;;;;;5056949;28;20053;-76
2021/11/25 02:31:24;;;;;;;49.15;18.67;;;;;;;;;;5057326;28;20114;-76
2021/11/25 02:33:52;;;;;;;39.47;16.10;;;;;;;;;;5057593;28;20053;-77
2021/11/25 02:39:41;;;;;;;42.80;15.77;;;;;;;;;;5056099;28;20486;-76
2021/11/25 02:42:08;;;;;;;42.33;16.08;;;;;;;;;;5056719;28;20080;-77
2021/11/25 02:44:35;;;;;;;43.05;16.77;;;;;;;;;;5057343;28;20516;-76
2021/11/25 02:47:02;;;;;;;42.30;15.05;;;;;;;;;;5057892;28;20048;-77
2021/11/25 02:49:29;;;;;;;45.78;17.60;;;;;;;;;;5056840;28;20052;-76
2021/11/25 02:51:56;;;;;;;42.17;17.35;;;;;;;;;;5057001;28;20053;-77
2021/11/25 02:54:23;;;;;;;41.25;16.20;;;;;;;;;;5059495;28;20091;-77
2021/11/25 02:56:51;;;;;;;42.00;15.68;;;;;;;;;;5065842;28;20056;-77
2021/11/25 02:59:18;;;;;;;42.80;16.40;;;;;;;;;;5062786;28;20467;-77
2021/11/25 03:01:45;;;;;;;45.50;17.20;;;;;;;;;;5057438;28;20131;-76
2021/11/25 03:04:11;;;;;;;46.65;16.98;;;;;;;;;;5057089;28;20388;-77
2021/11/25 03:06:38;;;;;;;44.38;17.02;;;;;;;;;;5059165;28;20045;-77
2021/11/25 03:09:06;;;;;;;48.67;16.58;;;;;;;;;;5065599;28;20049;-77
2021/11/25 03:11:33;;;;;;;41.60;15.65;;;;;;;;;;5062009;28;20052;-77
2021/11/25 03:14:04;;;;;;;43.60;16.05;;;;;;;;;;5058837;28;20512;-77
2021/11/25 03:16:32;;;;;;;;;;;;;;;;;;5057051;28;20094;-77
2021/11/25 03:18:59;;;;;;;44.10;17.08;;;;;;;;;;5056240;28;20376;-77
2021/11/25 03:21:27;;;;;;;40.70;15.70;;;;;;;;;;5056064;28;20041;-77
2021/11/25 03:23:55;;;;;;;42.88;16.38;;;;;;;;;;5056435;28;20134;-76
2021/11/25 03:26:24;;;;;;;44.08;16.77;;;;;;;;;;5056653;28;20091;-77
2021/11/25 03:28:52;;;;;;;48.28;17.80;;;;;;;;;;5055790;28;20095;-77
2021/11/25 03:31:24;;;;;;;45.60;17.85;;;;;;;;;;5055284;28;20102;-77
2021/11/25 03:33:51;;;;;;;48.47;16.70;;;;;;;;;;5059199;28;20048;-77
2021/11/25 03:36:18;;;;;;;45.70;16.05;;;;;;;;;;5063387;28;20045;-77
2021/11/25 03:38:45;;;;;;;42.53;16.08;;;;;;;;;;5068129;28;20076;-77
2021/11/25 03:41:14;;;;;;;40.83;16.40;;;;;;;;;;5065812;28;20049;-77
2021/11/25 03:43:41;;;;;;;48.88;16.70;;;;;;;;;;5066062;28;20053;-77
2021/11/25 03:46:08;;;;;;;46.90;16.92;;;;;;;;;;5064379;28;20049;-77
2021/11/25 03:48:36;;;;;;;45.60;16.48;;;;;;;;;;5065404;28;20491;-77
2021/11/25 03:51:05;;;;;;;47.90;17.42;;;;;;;;;;5064639;28;20115;-77
2021/11/25 03:53:33;;;;;;;46.65;16.42;;;;;;;;;;5065407;28;20049;-77
2021/11/25 03:56:00;;;;;;;46.33;17.33;;;;;;;;;;5063587;28;20076;-77
2021/11/25 03:58:27;;;;;;;48.65;17.40;;;;;;;;;;5064279;28;20071;-77
2021/11/25 04:00:54;;;;;;;48.03;18.38;;;;;;;;;;5063079;28;20048;-77
2021/11/25 04:03:21;;;;;;;46.22;16.08;;;;;;;;;;5065721;28;20110;-77
2021/11/25 04:05:49;;;;;;;47.63;17.95;;;;;;;;;;5067238;28;20107;-77
2021/11/25 04:08:17;;;;;;;47.50;18.33;;;;;;;;;;5063997;28;20099;-77
2021/11/25 04:10:44;;;;;;;45.58;16.05;;;;;;;;;;5063946;28;20121;-77
2021/11/25 04:13:11;;;;;;;49.88;16.65;;;;;;;;;;5063336;28;20053;-77
2021/11/25 04:15:38;;;;;;;47.03;16.05;;;;;;;;;;5066887;28;20045;-77
2021/11/25 04:18:04;;;;;;;41.08;16.90;;;;;;;;;;5068355;28;20040;-77
2021/11/25 04:20:33;;;;;;;46.58;17.65;;;;;;;;;;5063120;28;20052;-77
2021/11/25 04:23:02;;;;;;;40.45;16.08;;;;;;;;;;5061923;28;20079;-77
2021/11/25 04:25:28;;;;;;;46.28;16.27;;;;;;;;;;5064460;28;20052;-77
2021/11/25 04:27:55;;;;;;;42.15;16.35;;;;;;;;;;5067220;28;20055;-77
2021/11/25 04:30:36;;;;;;;43.90;16.85;;;;;;;;;;5067089;28;20512;-77
2021/11/25 04:35:48;;;;;;;42.30;15.45;;;;;;;;;;5068571;28;19943;-77
2021/11/25 04:38:18;;;;;;;45.00;15.23;;;;;;;;;;5068293;28;20041;-77
2021/11/25 04:40:49;;;;;;;53.70;19.55;;;;;;;;;;5068213;28;20482;-77
2021/11/25 04:43:18;;;;;;;51.05;17.95;;;;;;;;;;5066676;28;20079;-77
2021/11/25 04:45:46;;;;;;;43.85;17.08;;;;;;;;;;5059546;28;20221;-77
2021/11/25 04:48:14;;;;;;;43.60;16.33;;;;;;;;;;5059045;28;20078;-77
2021/11/25 04:50:41;;;;;;;47.25;16.75;;;;;;;;;;5058653;28;20130;-77
2021/11/25 04:53:09;;;;;;;41.55;15.93;;;;;;;;;;5059372;28;20500;-77
2021/11/25 04:55:38;;;;;;;48.80;18.33;;;;;;;;;;5060595;28;20385;-77
2021/11/25 04:58:05;;;;;;;44.63;17.27;;;;;;;;;;5060716;28;20072;-77
2021/11/25 05:00:32;;;;;;;42.53;16.13;;;;;;;;;;5060414;28;20215;-78
2021/11/25 05:02:59;;;;;;;42.55;15.90;;;;;;;;;;5064621;28;20067;-77
2021/11/25 05:05:26;;;;;;;45.40;17.70;;;;;;;;;;5066631;28;20061;-77
2021/11/25 05:07:53;;;;;;;40.95;16.15;;;;;;;;;;5068286;28;20055;-78
2021/11/25 05:10:20;;;;;;;40.20;15.52;;;;;;;;;;5067802;28;20079;-78
2021/11/25 05:12:48;;;;;;;45.85;16.10;;;;;;;;;;5066575;28;20048;-77
2021/11/25 05:15:17;;;;;;;36.13;14.60;;;;;;;;;;5066477;28;20065;-78
2021/11/25 05:17:44;;;;;;;44.88;14.90;;;;;;;;;;5065979;28;20044;-78
2021/11/25 05:20:13;;;;;;;38.22;15.32;;;;;;;;;;5067353;28;20397;-77
2021/11/25 05:22:40;;;;;;;42.40;15.95;;;;;;;;;;5067660;28;20052;-78
2021/11/25 05:25:08;;;;;;;37.20;14.25;;;;;;;;;;5068355;28;20049;-77
2021/11/25 05:27:35;;;;;;;38.28;15.07;;;;;;;;;;5068346;28;20052;-78
2021/11/25 05:30:05;;;;;;;38.08;13.80;;;;;;;;;;5067202;28;20105;-78
2021/11/25 05:32:31;;;;;;;34.45;14.82;;;;;;;;;;5068837;28;20061;-78
2021/11/25 05:34:58;;;;;;;35.33;14.60;;;;;;;;;;5068495;28;20071;-78
2021/11/25 05:37:25;;;;;;;36.47;14.70;;;;;;;;;;5068363;28;20083;-77
2021/11/25 05:39:52;;;;;;;40.30;14.07;;;;;;;;;;5068926;28;20111;-77
2021/11/25 05:42:19;;;;;;;39.50;14.77;;;;;;;;;;5076928;28;20029;-76
2021/11/25 05:44:46;;;;;;;41.75;14.35;;;;;;;;;;5071814;28;20049;-77
2021/11/25 05:47:14;;;;;;;43.25;15.63;;;;;;;;;;5068665;28;20404;-77
2021/11/25 05:49:41;;;;;;;43.38;14.68;;;;;;;;;;5068374;28;20045;-78
2021/11/25 05:52:08;;;;;;;41.08;15.50;;;;;;;;;;5068195;28;20045;-77
2021/11/25 05:54:35;;;;;;;43.22;15.43;;;;;;;;;;5064991;28;20053;-78
2021/11/25 05:57:01;;;;;;;40.38;13.98;;;;;;;;;;5066645;28;20053;-78
2021/11/25 05:59:28;;;;;;;41.35;15.13;;;;;;;;;;5064157;28;20049;-77
2021/11/25 06:01:55;;;;;;;40.38;14.80;;;;;;;;;;5064380;28;20141;-77
2021/11/25 06:04:23;;;;;;;40.72;13.77;;;;;;;;;;5065242;28;20041;-77
2021/11/25 06:06:50;;;;;;;36.13;13.23;;;;;;;;;;5066790;28;20041;-77
2021/11/25 06:09:17;;;;;;;43.55;15.65;;;;;;;;;;5066281;28;20045;-78
2021/11/25 06:11:43;;;;;;;42.10;14.30;;;;;;;;;;5066495;28;20527;-77
2021/11/25 06:14:10;;;;;;;41.20;15.60;;;;;;;;;;5066979;28;20045;-77
2021/11/25 06:16:37;;;;;;;38.78;14.90;;;;;;;;;;5066764;28;20045;-77
2021/11/25 06:19:03;;;;;;;40.90;14.70;;;;;;;;;;5066792;28;20110;-77
2021/11/25 06:21:32;;;;;;;33.25;13.40;;;;;;;;;;5067096;28;20049;-78
2021/11/25 06:23:58;;;;;;;39.65;14.70;;;;;;;;;;5066546;28;20071;-78
2021/11/25 06:26:25;;;;;;;36.88;15.75;;;;;;;;;;5066928;28;20103;-78
2021/11/25 06:28:54;;;;;;;37.58;15.05;;;;;;;;;;5067441;28;20049;-78
2021/11/25 06:31:21;;;;;;;38.17;14.23;;;;;;;;;;5066544;28;20039;-77
2021/11/25 06:33:48;;;;;;;36.58;14.20;;;;;;;;;;5066954;28;20098;-77
2021/11/25 06:36:15;;;;;;;36.05;13.80;;;;;;;;;;5066923;28;20412;-78
2021/11/25 06:38:43;;;;;;;41.70;16.58;;;;;;;;;;5067979;28;20103;-77
2021/11/25 06:41:10;;;;;;;39.38;15.15;;;;;;;;;;5069230;28;20057;-78
2021/11/25 06:43:37;;;;;;;37.17;14.27;;;;;;;;;;5069689;28;20055;-78
2021/11/25 06:46:04;;;;;;;38.38;14.48;;;;;;;;;;5068657;28;20049;-77
2021/11/25 06:48:30;;;;;;;35.63;14.65;;;;;;;;;;5066450;28;20045;-78
2021/11/25 06:50:57;;;;;;;35.08;14.77;;;;;;;;;;5067634;28;20087;-78
2021/11/25 06:53:26;;;;;;;37.17;14.75;;;;;;;;;;5067852;28;20079;-77
2021/11/25 06:55:54;;;;;;;37.22;13.65;;;;;;;;;;5066801;28;20060;-76
2021/11/25 06:58:21;;;;;;;36.83;13.75;;;;;;;;;;5066477;28;20045;-77
2021/11/25 07:00:48;;;;;;;36.50;14.68;;;;;;;;;;5067864;28;20049;-78
2021/11/25 07:03:15;;;;;;;38.45;14.18;;;;;;;;;;5066813;28;20067;-77
2021/11/25 07:05:41;;;;;;;36.47;14.43;;;;;;;;;;5068024;28;20045;-77
2021/11/25 07:08:08;;;;;;;38.20;13.85;;;;;;;;;;5070665;28;20078;-76
2021/11/25 07:10:35;;;;;;;34.15;13.68;;;;;;;;;;5070543;28;20053;-77
2021/11/25 07:13:03;;;;;;;37.63;14.75;;;;;;;;;;5070639;28;20048;-78
2021/11/25 07:15:30;;;;;;;36.75;14.35;;;;;;;;;;5070187;28;20067;-78
2021/11/25 07:17:58;;;;;;;45.20;15.15;;;;;;;;;;5069868;28;20052;-76
2021/11/25 07:20:24;;;;;;;44.35;15.95;;;;;;;;;;5069942;28;20110;-79
2021/11/25 07:22:51;;;;;;;39.97;16.05;;;;;;;;;;5068620;28;20044;-77
2021/11/25 07:25:20;;;;;;;44.50;17.85;;;;;;;;;;5070803;28;20056;-78
2021/11/25 07:27:47;;;;;;;40.78;15.25;;;;;;;;;;5070827;28;20106;-77
2021/11/25 07:30:17;;;;;;;36.45;13.93;;;;;;;;;;5070553;28;20110;-77
2021/11/25 07:32:44;;;;;;;41.40;15.85;;;;;;;;;;5070171;28;20435;-77
2021/11/25 07:35:12;;;;;;;35.28;14.65;;;;;;;;;;5070192;28;20091;-78
2021/11/25 07:37:39;;;;;;;35.72;14.20;;;;;;;;;;5070275;28;20134;-77
2021/11/25 07:40:09;;;;;;;40.72;15.45;;;;;;;;;;5069603;28;20463;-78
2021/11/25 07:42:36;;;;;;;43.90;16.98;;;;;;;;;;5068853;28;20112;-77
2021/11/25 07:45:04;;;;;;;38.47;14.35;;;;;;;;;;5068318;28;20060;-78
2021/11/25 07:47:33;;;;;;;39.40;16.10;;;;;;;;;;5068306;28;20106;-77
2021/11/25 07:50:02;;;;;;;35.72;14.73;;;;;;;;;;5068644;28;20056;-77
2021/11/25 07:52:28;;;;;;;36.45;15.13;;;;;;;;;;5060707;28;20462;-76
2021/11/25 07:54:55;;;;;;;39.08;13.95;;;;;;;;;;5058881;28;20115;-77
2021/11/25 07:57:22;;;;;;;39.85;14.45;;;;;;;;;;5052912;28;20041;-77
2021/11/25 07:59:49;;;;;;;41.33;15.48;;;;;;;;;;5051313;28;20423;-77
2021/11/25 08:02:17;;;;;;;36.97;14.02;;;;;;;;;;5054006;28;20068;-76
2021/11/25 08:04:45;;;;;;;40.90;14.75;;;;;;;;;;5065103;28;20123;-76
2021/11/25 08:07:11;;;;;;;40.80;15.10;;;;;;;;;;5065233;28;20037;-76
2021/11/25 08:09:38;;;;;;;39.15;15.38;;;;;;;;;;5066065;28;20079;-76
2021/11/25 08:12:06;;;;;;;42.78;14.88;;;;;;;;;;5065327;28;20453;-76
2021/11/25 08:14:33;;;;;;;38.08;14.30;;;;;;;;;;5055876;28;20041;-76
2021/11/25 08:17:00;;;;;;;39.85;15.10;;;;;;;;;;5051711;28;20044;-77
2021/11/25 08:19:27;;;;;;;40.00;14.25;;;;;;;;;;5051387;28;20122;-76
2021/11/25 08:21:56;;;;;;;38.67;15.57;;;;;;;;;;5049131;28;20084;-77
2021/11/25 08:24:23;;;;;;;43.42;15.65;;;;;;;;;;5048198;28;20041;-77
2021/11/25 08:26:49;;;;;;;39.97;15.88;;;;;;;;;;5050872;28;20211;-77
2021/11/25 08:29:16;;;;;;;41.55;14.57;;;;;;;;;;5051054;28;20130;-77
2021/11/25 08:31:43;;;;;;;41.38;16.90;;;;;;;;;;5051299;28;20128;-77
2021/11/25 08:34:09;;;;;;;34.70;14.75;;;;;;;;;;5051295;28;20450;-77
2021/11/25 08:36:36;;;;;;;43.72;16.10;;;;;;;;;;5051977;28;20053;-76
2021/11/25 08:39:05;;;;;;;43.22;16.75;;;;;;;;;;5052158;28;20072;-77
2021/11/25 08:41:32;;;;;;;39.28;15.98;;;;;;;;;;5056975;28;20053;-78
2021/11/25 08:43:58;;;;;;;40.15;14.88;;;;;;;;;;5050422;28;20337;-77
2021/11/25 08:46:26;;;;;;;39.42;16.67;;;;;;;;;;5050071;28;20561;-77
2021/11/25 08:48:53;;;;;;;38.30;15.65;;;;;;;;;;5050942;28;20052;-77
2021/11/25 08:51:19;;;;;;;39.85;15.77;;;;;;;;;;5054208;28;20045;-77
2021/11/25 08:53:46;;;;;;;40.05;16.60;;;;;;;;;;5049668;28;20045;-75
2021/11/25 08:56:14;;;;;;;43.63;16.92;;;;;;;;;;5047094;28;20075;-75
2021/11/25 08:58:41;;;;;;;44.22;15.32;;;;;;;;;;5048642;28;20451;-77
2021/11/25 09:01:08;;;;;;;36.90;15.48;;;;;;;;;;5051931;28;20091;-78
2021/11/25 09:03:35;;;;;;;39.65;14.73;;;;;;;;;;5047726;28;20103;-77
2021/11/25 09:06:02;;;;;;;46.83;17.08;;;;;;;;;;5048461;28;20086;-76
2021/11/25 09:08:29;;;;;;;43.45;16.65;;;;;;;;;;5048708;28;20186;-77
2021/11/25 09:10:56;;;;;;;47.47;15.32;;;;;;;;;;5050091;28;20075;-76
2021/11/25 09:13:24;;;;;;;45.80;16.75;;;;;;;;;;5049455;28;20045;-77
2021/11/25 09:15:51;;;;;;;42.88;15.23;;;;;;;;;;5048140;28;20069;-75
2021/11/25 09:18:18;;;;;;;45.83;17.70;;;;;;;;;;5047783;28;20111;-77
2021/11/25 09:20:44;;;;;;;42.33;16.95;;;;;;;;;;5047236;28;20053;-76
2021/11/25 09:23:12;;;;;;;46.80;18.73;;;;;;;;;;5048827;28;20053;-77
2021/11/25 09:25:42;;;;;;;43.60;17.42;;;;;;;;;;5048255;28;20049;-76
2021/11/25 09:28:10;;;;;;;47.55;17.42;;;;;;;;;;5048230;28;20098;-77
2021/11/25 09:30:38;;;;;;;44.88;16.05;;;;;;;;;;5048303;28;20500;-76
2021/11/25 09:33:06;;;;;;;51.00;18.48;;;;;;;;;;5046990;28;20820;-75
2021/11/25 09:35:33;;;;;;;50.25;19.95;;;;;;;;;;5048637;28;20048;-76
2021/11/25 09:38:00;;;;;;;52.38;18.30;;;;;;;;;;5047374;28;20431;-78
2021/11/25 09:40:28;;;;;;;43.05;15.63;;;;;;;;;;5050566;28;20037;-83
2021/11/25 09:42:57;;;;;;;48.30;18.77;;;;;;;;;;5055875;28;20758;-80
2021/11/25 09:45:25;;;;;;;58.85;19.20;;;;;;;;;;5054082;28;20470;-81
2021/11/25 09:47:55;;;;;;;45.90;17.83;;;;;;;;;;5053522;28;20110;-79
2021/11/25 09:50:24;;;;;;;50.08;18.40;;;;;;;;;;5059231;28;20111;-77
2021/11/25 09:52:53;;;;;;;47.53;18.75;;;;;;;;;;5061339;28;20063;-78
2021/11/25 09:55:20;;;;;;;48.55;17.67;;;;;;;;;;5061140;28;20052;-78
2021/11/25 09:57:50;;;;;;;46.85;17.05;;;;;;;;;;5059564;28;20057;-80
2021/11/25 10:00:18;;;;;;;39.75;15.70;;;;;;;;;;5061052;28;20040;-78
2021/11/25 10:02:44;;;;;;;58.55;22.48;;;;;;;;;;5061963;28;20114;-79
2021/11/25 10:05:13;;;;;;;48.08;19.33;;;;;;;;;;5061453;28;20150;-78
2021/11/25 10:07:41;;;;;;;47.33;18.17;;;;;;;;;;5061166;28;20126;-77
2021/11/25 10:10:25;;;;;;;45.15;16.80;;;;;;;;;;5061680;28;20053;-77
2021/11/25 10:12:58;;;;;;;52.33;21.83;;;;;;;;;;5060786;28;20094;-79
2021/11/25 10:15:31;;;;;;;48.65;19.50;;;;;;;;;;5062428;28;20365;-79
2021/11/25 10:18:00;;;;;;;44.92;19.17;;;;;;;;;;5061434;28;20067;-78
2021/11/25 10:20:36;;;;;;;56.63;22.42;;;;;;;;;;5061158;28;20052;-79
2021/11/25 10:23:21;;;;;;;53.60;21.85;;;;;;;;;;5061645;28;20672;-78
2021/11/25 10:25:51;;;;;;;49.55;17.33;;;;;;;;;;5059891;28;20079;-78
2021/11/25 10:28:21;;;;;;;41.05;15.57;;;;;;;;;;5061374;28;20045;-78
2021/11/25 10:30:51;;;;;;;42.50;15.05;;;;;;;;;;5062708;28;20041;-78
2021/11/25 10:33:24;;;;;;;44.15;17.20;;;;;;;;;;5060550;28;20726;-77
2021/11/25 10:36:15;;;;;;;45.97;16.75;;;;;;;;;;5059560;28;20112;-77
2021/11/25 10:41:47;;;;;;;49.50;18.45;;;;;;;;;;5061768;28;20045;-79
2021/11/25 10:44:22;;;;;;;40.20;15.32;;;;;;;;;;5064138;28;20053;-78
2021/11/25 10:46:56;;;;;;;44.10;15.18;;;;;;;;;;5064283;28;20083;-78
2021/11/25 10:49:39;;;;;;;42.70;15.68;;;;;;;;;;5062588;28;20095;-78
2021/11/25 10:52:17;;;;;;;40.80;14.10;;;;;;;;;;5065419;28;20048;-79
2021/11/25 10:54:47;;;;;;;43.35;16.52;;;;;;;;;;5063723;28;20072;-78
2021/11/25 10:57:14;;;;;;;48.33;16.88;;;;;;;;;;5064452;28;20128;-79
2021/11/25 10:59:43;;;;;;;47.95;16.95;;;;;;;;;;5065563;28;20103;-78
2021/11/25 11:02:22;;;;;;;51.33;20.85;;;;;;;;;;5064014;28;20045;-78
2021/11/25 11:04:50;;;;;;;49.00;19.05;;;;;;;;;;5064115;28;20045;-77
2021/11/25 11:07:30;;;;;;;47.67;18.10;;;;;;;;;;5062156;28;20033;-79
2021/11/25 11:09:58;;;;;;;46.88;18.45;;;;;;;;;;5060885;28;20060;-80
2021/11/25 11:12:31;;;;;;;55.92;19.88;;;;;;;;;;5060195;28;20094;-78
2021/11/25 11:15:12;;;;;;;60.83;23.30;;;;;;;;;;5063013;28;20113;-77
2021/11/25 11:17:59;;;;;;;73.65;27.50;;;;;;;;;;5062876;28;20178;-79
2021/11/25 11:20:26;;;;;;;52.45;18.23;;;;;;;;;;5064797;28;20037;-78
2021/11/25 11:22:56;;;;;;;48.80;17.25;;;;;;;;;;5065411;28;20075;-79
2021/11/25 11:25:23;;;;;;;50.88;18.00;;;;;;;;;;5065328;28;20045;-77
2021/11/25 11:27:52;;;;;;;50.30;17.30;;;;;;;;;;5061545;28;20094;-79
2021/11/25 11:30:20;;;;;;;49.20;17.73;;;;;;;;;;5062212;28;20076;-83
2021/11/25 11:32:47;;;;;;;48.55;17.23;;;;;;;;;;5062851;28;20037;-78
2021/11/25 11:35:19;;;;;;;46.63;16.60;;;;;;;;;;5063914;28;20045;-78
2021/11/25 11:37:46;;;;;;;49.33;19.08;;;;;;;;;;5064124;28;20056;-79
2021/11/25 11:40:14;;;;;;;50.47;18.20;;;;;;;;;;5064272;28;20049;-79
2021/11/25 11:42:42;;;;;;;50.22;18.70;;;;;;;;;;5064655;28;20049;-77
2021/11/25 11:45:09;;;;;;;52.17;18.23;;;;;;;;;;5063247;28;20041;-78
2021/11/25 11:47:37;;;;;;;52.78;19.10;;;;;;;;;;5063691;28;20037;-78
2021/11/25 11:50:09;;;;;;;48.75;17.33;;;;;;;;;;5062160;28;20106;-78
2021/11/25 11:52:53;;;;;;;51.28;18.98;;;;;;;;;;5061748;28;20079;-78
2021/11/25 11:55:34;;;;;;;50.70;18.38;;;;;;;;;;5062676;28;20092;-79
2021/11/25 11:58:02;;;;;;;49.42;18.73;;;;;;;;;;5061420;28;20092;-81
2021/11/25 12:00:34;;;;;;;53.15;19.35;;;;;;;;;;5060901;28;20041;-80
2021/11/25 12:03:01;;;;;;;56.75;19.73;;;;;;;;;;5061817;28;20051;-79
2021/11/25 12:06:01;;;;;;;58.92;21.08;;;;;;;;;;5062464;28;20056;-78
2021/11/25 12:08:44;;;;;;;48.55;17.63;;;;;;;;;;4978745;28;20054;-78
2021/11/25 12:11:15;;;;;;;54.80;19.15;;;;;;;;;;5056053;23;20045;-67
2021/11/25 12:13:56;;;;;;;50.15;20.50;;;;;;;;;;5028135;28;20330;-67
2021/11/25 12:16:27;;;;;;;56.88;19.88;;;;;;;;;;5027944;28;20045;-66
2021/11/25 12:18:57;;;;;;;50.28;18.58;;;;;;;;;;5027681;28;20123;-68
2021/11/25 12:21:35;;;;;;;51.63;19.40;;;;;;;;;;5027341;28;20064;-68
2021/11/25 12:24:11;;;;;;;50.67;19.67;;;;;;;;;;5028067;28;20140;-66
2021/11/25 12:27:04;;;;;;;52.08;18.30;;;;;;;;;;5028137;28;20085;-67
2021/11/25 12:29:40;;;;;;;61.30;19.55;;;;;;;;;;5026420;28;20061;-67
2021/11/25 12:32:41;;;;;;;53.95;18.17;;;;;;;;;;5027244;28;20043;-66
2021/11/25 12:35:38;;;;;;;51.70;18.70;;;;;;;;;;5027836;28;20063;-67
2021/11/25 12:38:07;;;;;;;50.40;17.27;;;;;;;;;;5026458;28;20050;-66
2021/11/25 12:40:49;;;;;;;49.72;17.33;;;;;;;;;;5027335;28;20041;-67
2021/11/25 12:43:19;;;;;;;54.83;18.55;;;;;;;;;;5027016;28;20054;-66
2021/11/25 12:45:48;;;;;;;59.75;19.60;;;;;;;;;;5027668;28;20045;-67
2021/11/25 12:48:29;;;;;;;54.30;18.88;;;;;;;;;;5027181;28;20041;-67
2021/11/25 12:51:01;;;;;;;63.70;19.20;;;;;;;;;;5027636;28;20347;-66
2021/11/25 12:53:33;;;;;;;71.80;23.98;;;;;;;;;;5027763;28;20054;-68
2021/11/25 12:56:10;;;;;;;60.72;23.52;;;;;;;;;;5027415;28;20060;-68
2021/11/25 12:58:54;;;;;;;69.32;25.60;;;;;;;;;;5027175;28;20042;-67
2021/11/25 13:01:27;;;;;;;56.53;21.60;;;;;;;;;;5027090;28;20056;-66
2021/11/25 13:03:59;;;;;;;53.30;20.13;;;;;;;;;;5026624;28;20407;-66
2021/11/25 13:06:27;;;;;;;54.20;18.75;;;;;;;;;;5027586;28;20055;-67
2021/11/25 13:08:54;;;;;;;49.88;18.65;;;;;;;;;;5026442;28;20052;-67
2021/11/25 13:11:24;;;;;;;52.00;18.83;;;;;;;;;;5027121;28;20049;-66
2021/11/25 13:13:55;;;;;;;55.00;18.75;;;;;;;;;;5027727;28;20053;-67
2021/11/25 13:16:22;;;;;;;;;;;;;;;;;;5027739;28;20056;-67
2021/11/25 13:18:58;;;;;;;50.22;18.08;;;;;;;;;;5026462;28;19932;-67
2021/11/25 13:21:28;;;;;;;49.67;18.17;;;;;;;;;;5026279;28;20068;-67
2021/11/25 13:24:05;;;;;;;54.88;19.08;;;;;;;;;;5026173;28;21188;-66
2021/11/25 13:26:41;;;;;;;54.50;18.52;;;;;;;;;;5026636;28;20175;-66
2021/11/25 13:29:10;;;;;;;50.75;16.58;;;;;;;;;;5026158;28;20129;-66
2021/11/25 13:31:37;;;;;;;47.10;16.75;;;;;;;;;;5027037;28;20076;-66
2021/11/25 13:34:07;;;;;;;43.55;15.85;;;;;;;;;;5026413;28;20044;-66
2021/11/25 13:36:50;;;;;;;50.40;17.40;;;;;;;;;;5026732;28;20052;-66
2021/11/25 13:39:20;;;;;;;51.60;18.13;;;;;;;;;;5025789;28;20163;-66
2021/11/25 13:41:49;;;;;;;53.03;18.38;;;;;;;;;;5026617;28;20104;-66
2021/11/25 13:44:19;;;;;;;49.45;17.52;;;;;;;;;;5026076;28;20064;-66
2021/11/25 13:46:48;;;;;;;48.63;15.82;;;;;;;;;;5026430;28;20076;-67
2021/11/25 13:49:17;;;;;;;35.30;14.32;;;;;;;;;;5026256;28;20049;-66
2021/11/25 13:51:48;;;;;;;39.25;14.30;;;;;;;;;;5026282;28;20387;-66
2021/11/25 13:54:17;;;;;;;43.13;15.05;;;;;;;;;;5026203;28;20444;-67
2021/11/25 13:56:45;;;;;;;41.25;14.75;;;;;;;;;;5025896;28;20546;-66
2021/11/25 13:59:13;;;;;;;43.90;15.82;;;;;;;;;;5025474;28;20046;-65
2021/11/25 14:01:45;;;;;;;45.70;15.30;;;;;;;;;;5025991;28;20073;-66
2021/11/25 14:04:13;;;;;;;46.42;17.70;;;;;;;;;;5026082;28;20049;-65
2021/11/25 14:06:40;;;;;;;43.22;14.88;;;;;;;;;;5026475;28;20046;-66
2021/11/25 14:09:10;;;;;;;39.53;14.38;;;;;;;;;;5025659;28;20053;-66
2021/11/25 14:11:40;;;;;;;41.13;14.63;;;;;;;;;;5025276;28;20371;-66
2021/11/25 14:14:09;;;;;;;39.28;14.27;;;;;;;;;;5025979;28;20410;-66
2021/11/25 14:16:48;;;;;;;42.53;15.77;;;;;;;;;;5025379;28;20044;-66
2021/11/25 14:19:21;;;;;;;37.22;14.40;;;;;;;;;;5026355;28;20510;-67
2021/11/25 14:21:50;;;;;;;38.10;14.25;;;;;;;;;;5026123;28;20457;-66
2021/11/25 14:24:20;;;;;;;38.17;14.77;;;;;;;;;;5026291;28;20052;-65
2021/11/25 14:27:10;;;;;;;40.38;15.50;;;;;;;;;;5026126;28;20038;-67
2021/11/25 14:32:30;;;;;;;52.05;18.70;;;;;;;;;;5026339;28;20402;-67
2021/11/25 14:34:57;;;;;;;43.88;16.05;;;;;;;;;;5026363;28;20049;-65
2021/11/25 14:37:26;;;;;;;41.45;15.40;;;;;;;;;;5026315;28;20057;-66
2021/11/25 14:39:54;;;;;;;41.05;14.20;;;;;;;;;;5026316;28;20414;-65
2021/11/25 14:42:25;;;;;;;45.08;15.68;;;;;;;;;;5025694;28;20049;-65